Topsail Beach, North Carolina
Current Conditions -  °F | °C
As of 12:25 AM on Wednesday 26 Nov 2014 (Local Time) from KNCA Reporting Station
Light Rain Light Rain  
Wind Chill: 62°   Ceiling: 500
Heat Index: 62°   Visibility: 8mi
Dew Point: 61°   Wind: 6mph
Humidity: 96%   Direction: 40°NE
Pressure: 29.95"   Gusts: NA
Location:  34.4895°N, 77.514°W
Report Text: KNCA 260525Z AUTO 04005KT 8SM -RA OVC005 17/16 A2995 RMK AO2 P0004 T01670161
Loading
Personal Weather Stations






























Interactive Weather Map New forecast layout! Learn more

10-Day Weather Forecast

Advertisements
Track Severe Weather on mobile